sensor_id;sensor_type;location;lat;lon;timestamp;temperature;humidity
43963;DHT22;29622;45.534;9.242;2022-12-29T04:47:05;11.70;62.00
43963;DHT22;29622;45.534;9.242;2022-12-29T05:31:55;10.80;63.90
43963;DHT22;29622;45.534;9.242;2022-12-29T07:02:11;10.90;64.70
43963;DHT22;29622;45.534;9.242;2022-12-29T07:26:31;10.90;65.20
43963;DHT22;29622;45.534;9.242;2022-12-29T07:44:28;11.00;65.30
43963;DHT22;29622;45.534;9.242;2022-12-29T07:50:06;11.00;65.10
43963;DHT22;29622;45.534;9.242;2022-12-29T08:46:04;11.60;64.60
43963;DHT22;29622;45.534;9.242;2022-12-29T08:51:20;11.60;64.50
43963;DHT22;29622;45.534;9.242;2022-12-29T09:09:08;12.60;64.70
43963;DHT22;29622;45.534;9.242;2022-12-29T09:27:13;13.80;62.20
43963;DHT22;29622;45.534;9.242;2022-12-29T09:39:00;14.10;61.60
43963;DHT22;29622;45.534;9.242;2022-12-29T10:03:49;14.40;60.70
43963;DHT22;29622;45.534;9.242;2022-12-29T10:27:41;16.50;57.30
43963;DHT22;29622;45.534;9.242;2022-12-29T10:32:58;16.70;57.30
43963;DHT22;29622;45.534;9.242;2022-12-29T10:38:27;16.50;56.60
43963;DHT22;29622;45.534;9.242;2022-12-29T10:43:33;16.20;56.60
43963;DHT22;29622;45.534;9.242;2022-12-29T10:48:37;15.60;57.10
43963;DHT22;29622;45.534;9.242;2022-12-29T10:54:03;15.20;57.40
43963;DHT22;29622;45.534;9.242;2022-12-29T10:59:19;15.10;57.50
43963;DHT22;29622;45.534;9.242;2022-12-29T11:09:43;15.00;57.50
43963;DHT22;29622;45.534;9.242;2022-12-29T11:14:44;15.30;58.00
43963;DHT22;29622;45.534;9.242;2022-12-29T11:19:44;15.80;57.30
43963;DHT22;29622;45.534;9.242;2022-12-29T11:24:46;15.80;56.60
43963;DHT22;29622;45.534;9.242;2022-12-29T11:29:47;16.00;56.80
43963;DHT22;29622;45.534;9.242;2022-12-29T11:34:50;15.80;56.30
43963;DHT22;29622;45.534;9.242;2022-12-29T11:40:02;15.90;56.60
43963;DHT22;29622;45.534;9.242;2022-12-29T11:45:17;15.80;56.50
43963;DHT22;29622;45.534;9.242;2022-12-29T11:50:21;15.70;56.50
43963;DHT22;29622;45.534;9.242;2022-12-29T11:55:25;15.70;56.50
43963;DHT22;29622;45.534;9.242;2022-12-29T12:00:29;15.50;56.60
43963;DHT22;29622;45.534;9.242;2022-12-29T12:05:43;15.40;56.60
43963;DHT22;29622;45.534;9.242;2022-12-29T12:11:23;15.20;56.60
43963;DHT22;29622;45.534;9.242;2022-12-29T12:22:19;15.10;56.50
43963;DHT22;29622;45.534;9.242;2022-12-29T12:27:28;15.50;56.70
43963;DHT22;29622;45.534;9.242;2022-12-29T12:44:01;16.00;55.70
43963;DHT22;29622;45.534;9.242;2022-12-29T12:49:55;15.90;55.80
43963;DHT22;29622;45.534;9.242;2022-12-29T13:00:19;16.30;55.50
43963;DHT22;29622;45.534;9.242;2022-12-29T13:26:28;17.30;54.10
43963;DHT22;29622;45.534;9.242;2022-12-29T13:31:37;17.70;53.70
43963;DHT22;29622;45.534;9.242;2022-12-29T13:36:45;17.40;53.30
43963;DHT22;29622;45.534;9.242;2022-12-29T13:42:05;16.70;53.60
43963;DHT22;29622;45.534;9.242;2022-12-29T13:52:34;16.10;54.30
43963;DHT22;29622;45.534;9.242;2022-12-29T13:57:51;15.80;54.80
43963;DHT22;29622;45.534;9.242;2022-12-29T14:03:27;15.60;54.90
43963;DHT22;29622;45.534;9.242;2022-12-29T14:08:34;15.40;55.00
43963;DHT22;29622;45.534;9.242;2022-12-29T14:13:38;15.30;55.20
43963;DHT22;29622;45.534;9.242;2022-12-29T14:18:44;15.20;55.30
43963;DHT22;29622;45.534;9.242;2022-12-29T14:23:49;14.90;55.60
43963;DHT22;29622;45.534;9.242;2022-12-29T14:28:50;14.80;55.90
43963;DHT22;29622;45.534;9.242;2022-12-29T14:44:30;14.60;56.30
43963;DHT22;29622;45.534;9.242;2022-12-29T14:49:41;14.70;56.50
43963;DHT22;29622;45.534;9.242;2022-12-29T14:59:54;14.60;56.60
43963;DHT22;29622;45.534;9.242;2022-12-29T15:04:59;14.70;56.40
43963;DHT22;29622;45.534;9.242;2022-12-29T15:10:11;14.70;56.80
43963;DHT22;29622;45.534;9.242;2022-12-29T15:15:20;14.80;56.30
43963;DHT22;29622;45.534;9.242;2022-12-29T15:20:30;15.00;56.30
43963;DHT22;29622;45.534;9.242;2022-12-29T15:25:31;15.50;56.10
43963;DHT22;29622;45.534;9.242;2022-12-29T15:30:32;15.90;55.30
43963;DHT22;29622;45.534;9.242;2022-12-29T15:35:35;16.30;55.10
43963;DHT22;29622;45.534;9.242;2022-12-29T15:40:36;16.50;54.60
43963;DHT22;29622;45.534;9.242;2022-12-29T15:45:38;16.40;54.80
43963;DHT22;29622;45.534;9.242;2022-12-29T15:50:40;16.30;54.70
43963;DHT22;29622;45.534;9.242;2022-12-29T15:55:43;16.00;54.50
43963;DHT22;29622;45.534;9.242;2022-12-29T16:00:52;15.80;54.90
43963;DHT22;29622;45.534;9.242;2022-12-29T16:05:56;15.30;54.60
43963;DHT22;29622;45.534;9.242;2022-12-29T16:10:57;14.90;55.10
43963;DHT22;29622;45.534;9.242;2022-12-29T16:16:19;14.40;55.30
43963;DHT22;29622;45.534;9.242;2022-12-29T16:21:33;14.00;55.80
43963;DHT22;29622;45.534;9.242;2022-12-29T16:26:35;13.70;56.10
43963;DHT22;29622;45.534;9.242;2022-12-29T16:31:56;13.50;56.60
43963;DHT22;29622;45.534;9.242;2022-12-29T16:37:19;13.40;56.70
43963;DHT22;29622;45.534;9.242;2022-12-29T16:42:35;13.30;56.90
43963;DHT22;29622;45.534;9.242;2022-12-29T16:47:39;13.50;57.30
43963;DHT22;29622;45.534;9.242;2022-12-29T16:52:39;13.50;56.90
43963;DHT22;29622;45.534;9.242;2022-12-29T16:57:42;13.50;57.10
43963;DHT22;29622;45.534;9.242;2022-12-29T17:02:44;13.40;57.30
43963;DHT22;29622;45.534;9.242;2022-12-29T17:07:45;13.50;57.40
43963;DHT22;29622;45.534;9.242;2022-12-29T17:12:47;13.60;57.70
43963;DHT22;29622;45.534;9.242;2022-12-29T17:17:49;13.90;57.30
43963;DHT22;29622;45.534;9.242;2022-12-29T17:22:52;13.90;57.40
43963;DHT22;29622;45.534;9.242;2022-12-29T17:27:57;14.00;57.10
43963;DHT22;29622;45.534;9.242;2022-12-29T17:33:01;14.00;57.30
43963;DHT22;29622;45.534;9.242;2022-12-29T17:38:08;14.10;57.20
43963;DHT22;29622;45.534;9.242;2022-12-29T17:43:14;13.80;57.40
43963;DHT22;29622;45.534;9.242;2022-12-29T17:48:17;13.50;57.60
43963;DHT22;29622;45.534;9.242;2022-12-29T17:53:24;13.50;57.90
43963;DHT22;29622;45.534;9.242;2022-12-29T17:58:27;13.50;58.10
43963;DHT22;29622;45.534;9.242;2022-12-29T18:03:39;13.70;58.10
43963;DHT22;29622;45.534;9.242;2022-12-29T18:08:40;13.80;57.80
43963;DHT22;29622;45.534;9.242;2022-12-29T18:13:41;13.80;57.70
43963;DHT22;29622;45.534;9.242;2022-12-29T18:18:42;13.60;57.80
43963;DHT22;29622;45.534;9.242;2022-12-29T18:23:43;13.50;57.90
43963;DHT22;29622;45.534;9.242;2022-12-29T18:28:45;13.40;58.30
43963;DHT22;29622;45.534;9.242;2022-12-29T18:33:50;13.60;58.80
43963;DHT22;29622;45.534;9.242;2022-12-29T18:38:54;13.90;58.30
43963;DHT22;29622;45.534;9.242;2022-12-29T18:43:54;14.30;57.90
43963;DHT22;29622;45.534;9.242;2022-12-29T18:48:55;14.80;57.90
43963;DHT22;29622;45.534;9.242;2022-12-29T18:53:56;15.20;57.30
43963;DHT22;29622;45.534;9.242;2022-12-29T18:58:56;15.60;57.20
43963;DHT22;29622;45.534;9.242;2022-12-29T19:03:57;16.00;56.40
43963;DHT22;29622;45.534;9.242;2022-12-29T19:08:57;15.70;56.00
43963;DHT22;29622;45.534;9.242;2022-12-29T19:13:58;15.40;56.20
43963;DHT22;29622;45.534;9.242;2022-12-29T19:18:59;15.10;56.20
43963;DHT22;29622;45.534;9.242;2022-12-29T19:24:00;14.70;56.50
43963;DHT22;29622;45.534;9.242;2022-12-29T19:29:01;14.30;56.80
43963;DHT22;29622;45.534;9.242;2022-12-29T19:34:02;14.20;57.10
43963;DHT22;29622;45.534;9.242;2022-12-29T19:39:03;14.00;57.20
43963;DHT22;29622;45.534;9.242;2022-12-29T19:44:03;13.80;57.40
43963;DHT22;29622;45.534;9.242;2022-12-29T19:49:04;13.80;57.80
43963;DHT22;29622;45.534;9.242;2022-12-29T19:54:05;14.20;58.00
43963;DHT22;29622;45.534;9.242;2022-12-29T19:59:05;14.30;57.50
43963;DHT22;29622;45.534;9.242;2022-12-29T20:04:06;14.30;57.30
43963;DHT22;29622;45.534;9.242;2022-12-29T20:09:06;14.20;57.40
43963;DHT22;29622;45.534;9.242;2022-12-29T20:14:07;13.90;57.60
43963;DHT22;29622;45.534;9.242;2022-12-29T20:19:08;13.60;58.00
43963;DHT22;29622;45.534;9.242;2022-12-29T20:24:08;13.60;58.50
43963;DHT22;29622;45.534;9.242;2022-12-29T20:29:09;13.60;58.50
43963;DHT22;29622;45.534;9.242;2022-12-29T20:34:10;13.50;58.50
43963;DHT22;29622;45.534;9.242;2022-12-29T20:39:17;13.40;58.80
43963;DHT22;29622;45.534;9.242;2022-12-29T20:44:18;13.30;58.90
43963;DHT22;29622;45.534;9.242;2022-12-29T20:49:19;13.30;59.30
43963;DHT22;29622;45.534;9.242;2022-12-29T20:54:20;13.30;59.10
43963;DHT22;29622;45.534;9.242;2022-12-29T20:59:20;13.20;59.10
43963;DHT22;29622;45.534;9.242;2022-12-29T21:04:21;12.90;59.30
43963;DHT22;29622;45.534;9.242;2022-12-29T21:09:22;12.90;59.80
43963;DHT22;29622;45.534;9.242;2022-12-29T21:14:23;13.00;59.80
43963;DHT22;29622;45.534;9.242;2022-12-29T21:19:23;13.00;59.70
43963;DHT22;29622;45.534;9.242;2022-12-29T21:24:24;13.00;60.00
43963;DHT22;29622;45.534;9.242;2022-12-29T21:29:25;13.30;59.80
43963;DHT22;29622;45.534;9.242;2022-12-29T21:34:26;13.60;59.80
43963;DHT22;29622;45.534;9.242;2022-12-29T21:39:26;14.10;59.20
43963;DHT22;29622;45.534;9.242;2022-12-29T21:44:27;14.00;58.70
43963;DHT22;29622;45.534;9.242;2022-12-29T21:49:46;13.80;59.00
43963;DHT22;29622;45.534;9.242;2022-12-29T21:54:47;13.80;59.10
43963;DHT22;29622;45.534;9.242;2022-12-29T22:00:00;13.90;59.20
43963;DHT22;29622;45.534;9.242;2022-12-29T22:05:19;14.00;58.70
43963;DHT22;29622;45.534;9.242;2022-12-29T22:10:40;13.70;59.00
43963;DHT22;29622;45.534;9.242;2022-12-29T22:16:05;13.80;59.20
43963;DHT22;29622;45.534;9.242;2022-12-29T22:21:08;14.10;58.80
43963;DHT22;29622;45.534;9.242;2022-12-29T22:26:11;14.10;58.60
43963;DHT22;29622;45.534;9.242;2022-12-29T22:36:21;14.30;58.70
43963;DHT22;29622;45.534;9.242;2022-12-29T22:41:22;14.50;58.50
43963;DHT22;29622;45.534;9.242;2022-12-29T22:46:23;14.60;58.40
43963;DHT22;29622;45.534;9.242;2022-12-29T22:51:23;14.90;58.10
43963;DHT22;29622;45.534;9.242;2022-12-29T22:56:24;15.00;58.10
43963;DHT22;29622;45.534;9.242;2022-12-29T23:01:25;14.90;57.70
43963;DHT22;29622;45.534;9.242;2022-12-29T23:06:25;14.70;57.90
43963;DHT22;29622;45.534;9.242;2022-12-29T23:11:27;14.40;58.20
43963;DHT22;29622;45.534;9.242;2022-12-29T23:16:28;14.50;58.30
43963;DHT22;29622;45.534;9.242;2022-12-29T23:21:28;14.10;58.20
43963;DHT22;29622;45.534;9.242;2022-12-29T23:26:37;13.80;58.60
43963;DHT22;29622;45.534;9.242;2022-12-29T23:31:38;13.60;59.10
43963;DHT22;29622;45.534;9.242;2022-12-29T23:36:39;13.30;59.20
43963;DHT22;29622;45.534;9.242;2022-12-29T23:41:40;13.20;59.50
43963;DHT22;29622;45.534;9.242;2022-12-29T23:46:41;13.10;59.30
43963;DHT22;29622;45.534;9.242;2022-12-29T23:51:41;12.80;59.40
43963;DHT22;29622;45.534;9.242;2022-12-29T23:56:42;12.70;59.90
